createdAt,value
2022-08-30T00:01:59.073Z,49.88
2022-08-30T00:04:25.950Z,38.85
2022-08-30T00:06:52.552Z,45.33
2022-08-30T00:09:19.193Z,56.58
2022-08-30T00:11:45.758Z,42.88
2022-08-30T00:14:12.442Z,42.35
2022-08-30T00:16:38.940Z,57.13
2022-08-30T00:19:05.654Z,44.20
2022-08-30T00:21:32.778Z,46.50
2022-08-30T00:23:59.387Z,62.22
2022-08-30T00:26:25.982Z,50.42
2022-08-30T00:28:52.646Z,40.83
2022-08-30T00:31:19.202Z,47.63
2022-08-30T00:33:45.714Z,63.90
2022-08-30T00:36:12.251Z,46.33
2022-08-30T00:38:38.738Z,54.38
2022-08-30T00:41:05.300Z,44.53
2022-08-30T00:43:34.093Z,45.78
2022-08-30T00:46:04.815Z,52.13
2022-08-30T00:48:32.858Z,47.95
2022-08-30T00:51:05.195Z,52.33
2022-08-30T00:53:34.252Z,50.15
2022-08-30T00:56:01.409Z,52.35
2022-08-30T00:58:29.682Z,33.83
2022-08-30T01:00:57.514Z,62.97
2022-08-30T01:03:24.295Z,48.53
2022-08-30T01:05:51.627Z,46.63
2022-08-30T01:08:20.434Z,60.20
2022-08-30T01:10:47.009Z,40.13
2022-08-30T01:13:15.024Z,43.97
2022-08-30T01:15:42.778Z,47.72
2022-08-30T01:18:11.518Z,42.00
2022-08-30T01:20:45.393Z,48.22
2022-08-30T01:23:13.780Z,53.83
2022-08-30T01:25:42.428Z,52.55
2022-08-30T01:28:10.868Z,59.65
2022-08-30T01:30:39.085Z,38.78
2022-08-30T01:33:06.376Z,50.03
2022-08-30T01:35:44.559Z,60.00
2022-08-30T01:38:12.686Z,42.58
2022-08-30T01:40:39.219Z,56.17
2022-08-30T01:43:06.528Z,68.15
2022-08-30T01:45:33.325Z,45.45
2022-08-30T01:48:01.652Z,69.47
2022-08-30T01:50:30.486Z,70.57
2022-08-30T01:52:57.112Z,55.42
2022-08-30T01:55:23.689Z,54.90
2022-08-30T01:57:50.225Z,69.53
2022-08-30T02:00:16.957Z,54.35
2022-08-30T02:02:43.874Z,59.67
2022-08-30T02:05:10.780Z,60.42
2022-08-30T02:07:37.234Z,51.67
2022-08-30T02:10:04.473Z,67.65
2022-08-30T02:12:31.015Z,69.15
2022-08-30T02:14:58.029Z,75.38
2022-08-30T02:17:24.747Z,58.42
2022-08-30T02:19:51.316Z,100.63
2022-08-30T02:22:18.319Z,65.68
2022-08-30T02:24:44.798Z,65.60
2022-08-30T02:27:11.361Z,94.97
2022-08-30T02:29:37.857Z,78.78
2022-08-30T02:32:04.891Z,86.13
2022-08-30T02:34:31.369Z,85.63
2022-08-30T02:36:58.615Z,77.15
2022-08-30T02:39:25.093Z,86.03
2022-08-30T02:41:51.677Z,97.65
2022-08-30T02:44:18.203Z,84.45
2022-08-30T02:46:45.528Z,73.50
2022-08-30T02:51:58.520Z,87.68
2022-08-30T02:54:25.175Z,95.22
2022-08-30T02:56:51.789Z,92.72
2022-08-30T02:59:18.402Z,86.35
2022-08-30T03:01:45.420Z,78.70
2022-08-30T03:04:12.128Z,77.75
2022-08-30T03:06:38.873Z,82.05
2022-08-30T03:09:05.689Z,88.18
2022-08-30T03:11:32.372Z,91.43
2022-08-30T03:13:59.423Z,97.13
2022-08-30T03:16:25.945Z,92.47
2022-08-30T03:18:52.499Z,107.28
2022-08-30T03:21:18.995Z,86.45
2022-08-30T03:23:45.859Z,87.72
2022-08-30T03:26:14.820Z,102.35
2022-08-30T03:28:42.426Z,94.13
2022-08-30T03:31:08.931Z,88.80
2022-08-30T03:33:35.846Z,95.40
2022-08-30T03:36:02.426Z,102.75
2022-08-30T03:38:29.129Z,96.25
2022-08-30T03:40:55.605Z,117.45
2022-08-30T03:43:23.408Z,73.80
2022-08-30T03:45:50.417Z,104.10
2022-08-30T03:48:19.196Z,113.78
2022-08-30T03:50:45.745Z,95.10
2022-08-30T03:53:12.598Z,94.32
2022-08-30T03:55:39.189Z,98.03
2022-08-30T03:58:05.780Z,103.60
2022-08-30T04:00:32.320Z,102.70
2022-08-30T04:02:59.079Z,109.40
2022-08-30T04:05:25.638Z,80.25
2022-08-30T04:07:52.404Z,91.93
2022-08-30T04:10:21.292Z,93.93
2022-08-30T04:12:49.806Z,78.10
2022-08-30T04:15:17.738Z,71.28
2022-08-30T04:17:44.318Z,76.95
2022-08-30T04:20:11.124Z,69.50
2022-08-30T04:22:37.888Z,62.88
2022-08-30T04:25:05.065Z,73.53
2022-08-30T04:27:31.543Z,57.03
2022-08-30T04:29:58.748Z,72.70
2022-08-30T04:32:25.334Z,73.78
2022-08-30T04:34:55.919Z,56.53
2022-08-30T04:37:22.558Z,58.25
2022-08-30T04:39:49.047Z,70.68
2022-08-30T04:42:16.087Z,49.20
2022-08-30T04:44:42.538Z,58.63
2022-08-30T04:47:09.726Z,52.92
2022-08-30T04:49:36.522Z,50.67
2022-08-30T04:52:03.209Z,54.90
2022-08-30T04:54:29.683Z,62.67
2022-08-30T04:56:56.168Z,66.13
2022-08-30T04:59:22.689Z,47.67
2022-08-30T05:01:49.203Z,63.50
2022-08-30T05:04:16.183Z,33.20
2022-08-30T05:06:43.041Z,51.78
2022-08-30T05:09:09.518Z,54.85
2022-08-30T05:11:36.955Z,44.95
2022-08-30T05:14:03.510Z,44.00
2022-08-30T05:16:30.153Z,59.90
2022-08-30T05:18:56.734Z,45.50
2022-08-30T05:21:25.624Z,46.03
2022-08-30T05:23:56.079Z,69.80
2022-08-30T05:26:25.101Z,42.03
2022-08-30T05:28:51.814Z,48.90
2022-08-30T05:31:26.053Z,72.97
2022-08-30T05:33:53.806Z,47.08
2022-08-30T05:36:21.383Z,48.70
2022-08-30T05:38:47.972Z,52.58
2022-08-30T05:41:14.499Z,21.60
2022-08-30T05:43:40.981Z,41.95
2022-08-30T05:46:11.527Z,54.25
2022-08-30T05:48:38.824Z,38.25
2022-08-30T05:51:10.634Z,47.97
2022-08-30T05:53:37.980Z,37.45
2022-08-30T05:56:05.820Z,53.63
2022-08-30T05:58:32.379Z,42.30
2022-08-30T06:00:59.448Z,53.38
2022-08-30T06:03:27.109Z,46.95
2022-08-30T06:05:53.797Z,50.40
2022-08-30T06:08:20.624Z,34.67
2022-08-30T06:10:47.527Z,31.85
2022-08-30T06:13:14.644Z,45.70
2022-08-30T06:15:41.814Z,35.42
2022-08-30T06:18:08.330Z,36.05
2022-08-30T06:20:39.055Z,55.28
2022-08-30T06:23:05.630Z,30.83
2022-08-30T06:25:42.195Z,27.02
2022-08-30T06:28:09.599Z,38.75
2022-08-30T06:30:36.356Z,33.85
2022-08-30T06:33:03.187Z,52.50
2022-08-30T06:35:32.740Z,43.17
2022-08-30T06:38:01.965Z,31.65
2022-08-30T06:40:28.582Z,26.48
2022-08-30T06:42:55.098Z,50.88
2022-08-30T06:45:21.618Z,32.25
2022-08-30T06:47:48.745Z,28.23
2022-08-30T06:50:15.901Z,44.60
2022-08-30T06:52:43.748Z,33.70
2022-08-30T06:55:11.580Z,34.42
2022-08-30T06:57:38.307Z,40.25
2022-08-30T07:00:06.420Z,53.45
2022-08-30T07:02:33.569Z,37.08
2022-08-30T07:05:02.234Z,38.88
2022-08-30T07:07:28.803Z,17.33
2022-08-30T07:09:55.801Z,34.15
2022-08-30T07:12:22.409Z,34.25
2022-08-30T07:14:49.383Z,32.03
2022-08-30T07:17:35.048Z,32.83
2022-08-30T07:20:02.538Z,34.42
2022-08-30T07:22:29.291Z,31.27
2022-08-30T07:24:55.831Z,56.80
2022-08-30T07:27:22.300Z,32.95
2022-08-30T07:29:49.377Z,39.05
2022-08-30T07:32:16.005Z,35.17
2022-08-30T07:34:42.496Z,36.10
2022-08-30T07:37:08.955Z,36.08
2022-08-30T07:39:41.710Z,37.22
2022-08-30T07:42:12.369Z,34.15
2022-08-30T07:44:38.921Z,32.78
2022-08-30T07:47:05.461Z,36.03
2022-08-30T07:49:31.986Z,33.65
2022-08-30T07:51:58.467Z,25.98
2022-08-30T07:54:24.997Z,46.85
2022-08-30T07:56:54.378Z,19.83
2022-08-30T07:59:20.847Z,30.45
2022-08-30T08:01:47.446Z,36.25
2022-08-30T08:04:13.945Z,14.32
2022-08-30T08:06:40.598Z,24.25
2022-08-30T08:09:07.784Z,38.13
2022-08-30T08:11:34.726Z,16.80
2022-08-30T08:14:01.761Z,12.77
2022-08-30T08:16:29.219Z,23.40
2022-08-30T08:18:56.216Z,21.70
2022-08-30T08:21:23.452Z,30.45
2022-08-30T08:23:50.151Z,23.02
2022-08-30T08:26:16.829Z,19.08
2022-08-30T08:28:44.987Z,20.70
2022-08-30T08:31:15.495Z,35.50
2022-08-30T08:33:42.121Z,24.23
2022-08-30T08:36:09.511Z,46.10
2022-08-30T08:38:37.049Z,18.20
2022-08-30T08:41:22.960Z,12.27
2022-08-30T08:43:49.521Z,38.47
2022-08-30T08:46:19.044Z,9.25
2022-08-30T08:48:59.862Z,17.25
2022-08-30T08:51:46.768Z,12.98
2022-08-30T08:54:20.032Z,28.35
2022-08-30T08:59:14.991Z,298.83
2022-08-30T09:01:41.625Z,30.42
2022-08-30T09:04:14.423Z,30.60
2022-08-30T09:06:45.059Z,14.85
2022-08-30T09:09:12.143Z,12.00
2022-08-30T09:11:39.573Z,13.57
2022-08-30T09:14:10.446Z,15.52
2022-08-30T09:16:48.397Z,9.85
2022-08-30T09:19:34.624Z,14.63
2022-08-30T09:22:26.487Z,7.70
2022-08-30T09:24:55.979Z,22.92
2022-08-30T09:27:33.538Z,18.83
2022-08-30T09:30:16.803Z,39.67
2022-08-30T09:32:50.568Z,6.72
2022-08-30T09:35:22.403Z,30.52
2022-08-30T09:37:52.439Z,15.48
2022-08-30T09:40:37.730Z,18.35
2022-08-30T09:43:04.285Z,13.90
2022-08-30T09:45:32.972Z,34.13
2022-08-30T09:47:59.716Z,28.67
2022-08-30T09:50:29.668Z,12.63
2022-08-30T09:53:14.809Z,13.48
2022-08-30T09:55:50.099Z,9.20
2022-08-30T09:58:54.266Z,29.70
2022-08-30T10:01:45.935Z,22.98
2022-08-30T10:04:18.572Z,19.45
2022-08-30T10:06:47.991Z,47.80
2022-08-30T10:09:27.965Z,26.67
2022-08-30T10:12:01.692Z,42.83
2022-08-30T10:14:30.981Z,11.48
2022-08-30T10:16:57.499Z,27.30
2022-08-30T10:19:46.243Z,16.42
2022-08-30T10:22:15.828Z,27.40
2022-08-30T10:24:47.885Z,21.45
2022-08-30T10:27:26.254Z,32.53
2022-08-30T10:29:54.928Z,55.47
2022-08-30T10:32:26.706Z,32.63
2022-08-30T10:34:56.490Z,28.42
2022-08-30T10:37:27.119Z,34.53
2022-08-30T10:39:56.437Z,42.30
2022-08-30T10:42:34.614Z,34.13
2022-08-30T10:45:15.185Z,38.00
2022-08-30T10:47:44.797Z,46.15
2022-08-30T10:50:16.686Z,22.85
2022-08-30T10:52:45.919Z,26.67
2022-08-30T10:55:25.574Z,52.53
2022-08-30T10:57:52.706Z,21.17
2022-08-30T11:00:48.366Z,43.63
2022-08-30T11:03:14.837Z,34.15
2022-08-30T11:05:47.405Z,30.27
2022-08-30T11:08:37.665Z,32.35
2022-08-30T11:11:06.967Z,39.13
2022-08-30T11:13:40.637Z,9.85
2022-08-30T11:16:30.468Z,44.10
2022-08-30T11:18:57.604Z,40.03
2022-08-30T11:21:24.103Z,37.90
2022-08-30T11:24:10.817Z,11.02
2022-08-30T11:26:43.849Z,49.60
2022-08-30T11:29:38.138Z,30.48
2022-08-30T11:32:13.431Z,28.75
2022-08-30T11:34:49.454Z,17.77
2022-08-30T11:37:37.297Z,44.53
2022-08-30T11:40:26.238Z,21.80
2022-08-30T11:42:54.845Z,35.00
2022-08-30T11:45:25.188Z,34.45
2022-08-30T11:48:05.554Z,31.15
2022-08-30T11:50:39.374Z,27.45
2022-08-30T11:53:16.108Z,32.22
2022-08-30T11:55:49.534Z,13.18
2022-08-30T11:58:31.638Z,24.75
2022-08-30T12:01:40.824Z,15.10
2022-08-30T12:03:59.938Z,13.18
2022-08-30T12:06:41.423Z,18.27
2022-08-30T12:09:33.158Z,23.33
2022-08-30T12:12:32.461Z,34.17
2022-08-30T12:15:00.293Z,23.20
2022-08-30T12:17:50.606Z,12.05
2022-08-30T12:20:22.477Z,12.93
2022-08-30T12:22:49.845Z,15.57
2022-08-30T12:25:19.051Z,17.67
2022-08-30T12:27:46.844Z,74.63
2022-08-30T12:30:14.224Z,21.95
2022-08-30T12:32:45.552Z,16.27
2022-08-30T12:35:18.913Z,14.82
2022-08-30T12:37:55.042Z,16.48
2022-08-30T12:40:24.046Z,33.55
2022-08-30T12:42:51.167Z,19.80
2022-08-30T12:45:20.952Z,39.42
2022-08-30T12:48:02.748Z,20.50
2022-08-30T12:50:33.731Z,21.20
2022-08-30T12:53:02.837Z,43.08
2022-08-30T12:55:31.462Z,80.43
2022-08-30T12:58:00.832Z,21.60
2022-08-30T13:00:27.663Z,33.95
2022-08-30T13:02:56.087Z,12.27
2022-08-30T13:05:44.943Z,57.85
2022-08-30T13:08:11.900Z,16.40
2022-08-30T13:10:48.514Z,36.13
2022-08-30T13:13:26.216Z,13.85
2022-08-30T13:15:52.837Z,42.80
2022-08-30T13:18:27.378Z,24.85
2022-08-30T13:21:10.417Z,11.80
2022-08-30T13:23:36.915Z,27.35
2022-08-30T13:26:06.574Z,12.38
2022-08-30T13:28:42.689Z,24.45
2022-08-30T13:31:09.738Z,21.83
2022-08-30T13:33:36.724Z,22.83
2022-08-30T13:36:03.292Z,31.08
2022-08-30T13:38:29.770Z,9.23
2022-08-30T13:40:56.488Z,15.10
2022-08-30T13:43:23.037Z,17.25
2022-08-30T13:45:49.611Z,17.02
2022-08-30T13:48:17.499Z,15.85
2022-08-30T13:50:51.559Z,34.90
2022-08-30T13:53:51.868Z,13.93
2022-08-30T13:56:04.980Z,35.63
2022-08-30T13:58:31.848Z,12.30
2022-08-30T14:00:59.809Z,11.43
2022-08-30T14:03:26.529Z,23.67
2022-08-30T14:06:21.983Z,23.55
2022-08-30T14:08:48.749Z,38.97
2022-08-30T14:11:18.930Z,20.10
2022-08-30T14:16:34.795Z,12.85
2022-08-30T14:19:01.719Z,16.80
2022-08-30T14:21:28.339Z,38.55
2022-08-30T14:23:56.547Z,11.57
2022-08-30T14:26:32.259Z,18.30
2022-08-30T14:28:59.677Z,20.73
2022-08-30T14:31:26.215Z,15.65
2022-08-30T14:33:53.079Z,45.67
2022-08-30T14:36:19.710Z,9.45
2022-08-30T14:38:48.584Z,23.00
2022-08-30T14:41:15.425Z,21.13
2022-08-30T14:43:42.039Z,21.58
2022-08-30T14:46:10.574Z,19.98
2022-08-30T14:48:38.288Z,25.08
2022-08-30T14:51:16.673Z,33.95
2022-08-30T14:53:43.644Z,17.58
2022-08-30T14:56:11.680Z,14.63
2022-08-30T14:58:38.207Z,14.13
2022-08-30T15:01:08.998Z,18.67
2022-08-30T15:03:36.477Z,19.13
2022-08-30T15:06:03.039Z,64.45
2022-08-30T15:08:29.784Z,40.60
2022-08-30T15:10:56.307Z,15.50
2022-08-30T15:13:23.057Z,8.50
2022-08-30T15:15:49.839Z,33.67
2022-08-30T15:18:20.113Z,28.67
2022-08-30T15:20:47.863Z,22.02
2022-08-30T15:23:16.893Z,18.20
2022-08-30T15:25:43.515Z,24.50
2022-08-30T15:28:10.101Z,43.88
2022-08-30T15:30:36.750Z,35.55
2022-08-30T15:33:03.238Z,36.83
2022-08-30T15:35:29.915Z,11.57
2022-08-30T15:37:57.503Z,22.13
2022-08-30T15:40:24.617Z,12.02
2022-08-30T15:42:52.969Z,23.48
2022-08-30T15:45:19.483Z,25.92
2022-08-30T15:47:46.142Z,16.15
2022-08-30T15:50:12.939Z,14.90
2022-08-30T15:52:39.412Z,18.83
2022-08-30T15:55:06.274Z,23.65
2022-08-30T15:57:32.907Z,36.83
2022-08-30T15:59:59.641Z,21.98
2022-08-30T16:02:27.771Z,26.83
2022-08-30T16:04:54.840Z,84.38
2022-08-30T16:07:21.366Z,13.65
2022-08-30T16:09:47.907Z,18.83
2022-08-30T16:12:23.293Z,24.88
2022-08-30T16:14:51.082Z,33.67
2022-08-30T16:17:18.176Z,13.57
2022-08-30T16:19:44.930Z,11.05
2022-08-30T16:22:11.406Z,22.50
2022-08-30T16:24:38.686Z,17.40
2022-08-30T16:27:05.788Z,30.17
2022-08-30T16:29:35.289Z,27.25
2022-08-30T16:32:01.889Z,12.27
2022-08-30T16:34:28.424Z,27.35
2022-08-30T16:36:55.020Z,33.40
2022-08-30T16:39:21.590Z,18.70
2022-08-30T16:41:48.276Z,19.17
2022-08-30T16:44:15.961Z,22.33
2022-08-30T16:46:52.728Z,22.30
2022-08-30T16:49:20.567Z,24.80
2022-08-30T16:51:49.567Z,38.15
2022-08-30T16:54:17.391Z,30.35
2022-08-30T16:56:44.259Z,37.10
2022-08-30T16:59:13.130Z,22.80
2022-08-30T17:01:41.116Z,15.57
2022-08-30T17:04:08.331Z,31.90
2022-08-30T17:06:35.580Z,21.42
2022-08-30T17:09:02.471Z,21.27
2022-08-30T17:11:29.010Z,29.98
2022-08-30T17:13:55.501Z,28.88
2022-08-30T17:16:28.192Z,10.93
2022-08-30T17:18:55.996Z,23.33
2022-08-30T17:21:26.898Z,13.50
2022-08-30T17:23:53.492Z,20.90
2022-08-30T17:26:20.244Z,27.00
2022-08-30T17:28:46.836Z,35.28
2022-08-30T17:31:14.825Z,9.25
2022-08-30T17:33:43.048Z,26.90
2022-08-30T17:36:12.245Z,19.00
2022-08-30T17:38:40.051Z,14.18
2022-08-30T17:41:11.447Z,35.30
2022-08-30T17:43:38.240Z,17.42
2022-08-30T17:46:06.440Z,24.48
2022-08-30T17:48:32.961Z,110.57
2022-08-30T17:50:59.652Z,50.97
2022-08-30T17:53:26.252Z,20.17
2022-08-30T17:55:52.720Z,23.38
2022-08-30T17:58:19.194Z,9.52
2022-08-30T18:00:48.473Z,16.95
2022-08-30T18:03:17.469Z,35.25
2022-08-30T18:05:46.966Z,17.13
2022-08-30T18:08:13.871Z,25.77
2022-08-30T18:10:40.463Z,30.30
2022-08-30T18:13:06.917Z,21.20
2022-08-30T18:15:33.959Z,24.95
2022-08-30T18:18:00.637Z,27.75
2022-08-30T18:20:27.216Z,49.63
2022-08-30T18:22:57.856Z,19.73
2022-08-30T18:25:24.363Z,29.98
2022-08-30T18:27:58.809Z,19.52
2022-08-30T18:30:31.207Z,25.88
2022-08-30T18:33:00.729Z,8.38
2022-08-30T18:35:27.380Z,17.23
2022-08-30T18:37:54.284Z,27.20
2022-08-30T18:40:21.002Z,15.23
2022-08-30T18:42:47.702Z,30.02
2022-08-30T18:45:15.300Z,35.05
2022-08-30T18:47:42.138Z,14.02
2022-08-30T18:50:08.857Z,15.07
2022-08-30T18:52:35.342Z,30.00
2022-08-30T18:55:02.414Z,15.95
2022-08-30T18:57:29.134Z,10.75
2022-08-30T18:59:57.620Z,20.27
2022-08-30T19:02:27.817Z,14.45
2022-08-30T19:04:54.480Z,19.88
2022-08-30T19:07:21.540Z,27.48
2022-08-30T19:09:55.684Z,11.10
2022-08-30T19:12:26.131Z,18.75
2022-08-30T19:14:54.171Z,21.42
2022-08-30T19:17:23.044Z,6.97
2022-08-30T19:19:52.425Z,18.15
2022-08-30T19:22:20.253Z,19.38
2022-08-30T19:24:47.844Z,33.22
2022-08-30T19:27:16.816Z,50.72
2022-08-30T19:29:44.502Z,12.50
2022-08-30T19:32:11.929Z,17.00
2022-08-30T19:34:39.733Z,31.52
2022-08-30T19:37:06.195Z,19.83
2022-08-30T19:39:33.017Z,15.07
2022-08-30T19:41:59.675Z,23.08
2022-08-30T19:44:26.800Z,8.93
2022-08-30T19:46:53.512Z,18.95
2022-08-30T19:49:21.309Z,22.08
2022-08-30T19:51:48.240Z,15.00
2022-08-30T19:54:15.289Z,34.05
2022-08-30T19:56:43.832Z,25.60
2022-08-30T19:59:10.300Z,15.50
2022-08-30T20:01:37.161Z,13.07
2022-08-30T20:04:03.805Z,14.93
2022-08-30T20:06:30.872Z,12.98
2022-08-30T20:08:58.297Z,15.20
2022-08-30T20:11:27.141Z,24.75
2022-08-30T20:13:53.617Z,12.55
2022-08-30T20:16:20.152Z,13.98
2022-08-30T20:18:48.949Z,26.92
2022-08-30T20:21:16.074Z,28.73
2022-08-30T20:23:43.390Z,20.67
2022-08-30T20:26:10.605Z,21.35
2022-08-30T20:28:37.799Z,11.43
2022-08-30T20:31:05.553Z,15.88
2022-08-30T20:33:32.136Z,29.27
2022-08-30T20:36:01.985Z,14.10
2022-08-30T20:38:28.472Z,32.88
2022-08-30T20:40:56.663Z,26.42
2022-08-30T20:43:24.521Z,10.40
2022-08-30T20:45:51.196Z,19.77
2022-08-30T20:48:17.911Z,30.48
2022-08-30T20:50:44.847Z,40.67
2022-08-30T20:53:11.848Z,14.80
2022-08-30T20:55:45.578Z,21.17
2022-08-30T20:58:12.183Z,13.50
2022-08-30T21:00:38.947Z,27.15
2022-08-30T21:03:08.288Z,40.88
2022-08-30T21:05:52.043Z,14.85
2022-08-30T21:08:18.753Z,27.80
2022-08-30T21:10:46.274Z,16.35
2022-08-30T21:13:12.859Z,14.23
2022-08-30T21:15:39.425Z,31.98
2022-08-30T21:18:05.970Z,15.98
2022-08-30T21:20:32.885Z,10.05
2022-08-30T21:22:59.400Z,33.53
2022-08-30T21:25:26.008Z,10.50
2022-08-30T21:27:53.696Z,16.05
2022-08-30T21:30:20.232Z,33.38
2022-08-30T21:32:46.799Z,18.45
2022-08-30T21:35:32.093Z,33.70
2022-08-30T21:37:58.614Z,19.58
2022-08-30T21:40:25.181Z,12.43
2022-08-30T21:42:52.039Z,25.92
2022-08-30T21:45:19.026Z,33.92
2022-08-30T21:47:45.494Z,15.70
2022-08-30T21:50:12.034Z,22.63
2022-08-30T21:52:38.522Z,35.22
2022-08-30T21:55:05.363Z,20.65
2022-08-30T21:57:32.920Z,29.55
2022-08-30T21:59:59.662Z,20.52
2022-08-30T22:02:26.298Z,11.88
2022-08-30T22:04:52.864Z,18.98
2022-08-30T22:07:20.456Z,29.60
2022-08-30T22:09:46.928Z,34.40
2022-08-30T22:12:13.419Z,33.85
2022-08-30T22:14:40.688Z,34.05
2022-08-30T22:17:07.273Z,15.15
2022-08-30T22:19:34.065Z,10.23
2022-08-30T22:22:01.590Z,23.40
2022-08-30T22:24:32.000Z,15.20
2022-08-30T22:26:59.924Z,38.22
2022-08-30T22:29:26.421Z,17.15
2022-08-30T22:31:54.004Z,17.50
2022-08-30T22:34:20.646Z,16.08
2022-08-30T22:36:47.198Z,25.35
2022-08-30T22:39:13.899Z,32.28
2022-08-30T22:41:41.437Z,22.65
2022-08-30T22:44:08.387Z,24.02
2022-08-30T22:46:35.375Z,14.07
2022-08-30T22:49:02.868Z,22.48
2022-08-30T22:51:29.649Z,28.20
2022-08-30T22:53:56.526Z,25.27
2022-08-30T22:56:24.873Z,21.85
2022-08-30T22:58:51.910Z,26.92
2022-08-30T23:01:26.978Z,12.38
2022-08-30T23:03:53.990Z,31.15
2022-08-30T23:06:20.588Z,25.48
2022-08-30T23:08:47.108Z,21.48
2022-08-30T23:11:13.951Z,24.70
2022-08-30T23:13:40.817Z,19.52
2022-08-30T23:16:08.392Z,19.17
2022-08-30T23:18:36.025Z,21.60
2022-08-30T23:21:10.946Z,19.40
2022-08-30T23:23:56.277Z,15.63
2022-08-30T23:26:41.521Z,18.60
2022-08-30T23:29:26.552Z,24.52
2022-08-30T23:32:11.766Z,22.60
2022-08-30T23:34:57.020Z,26.88
2022-08-30T23:37:42.145Z,23.02
2022-08-30T23:40:27.373Z,18.98
2022-08-30T23:43:12.596Z,38.67
2022-08-30T23:45:57.889Z,26.27
2022-08-30T23:48:50.951Z,24.27
2022-08-30T23:51:37.425Z,36.97
2022-08-30T23:54:23.076Z,10.55
2022-08-30T23:57:08.328Z,31.98
2022-08-30T23:59:53.488Z,18.90
